Time;durP1;ratioP1;P1;durP2;ratioP2;P2;SDS_P1;SDS_P2;PMS_P1;PMS_P2;Temp;Humidity;BMP_temperature;BMP_pressure;BME280_temperature;BME280_humidity;BME280_pressure;Samples;Min_cycle;Max_cycle;Signal;HPM_P1;HPM_P2
2021/09/22 00:02:26;;;;;;;8.93;8.23;;;;;;;11.07;89.64;100991.75;10378625;28;20042;-73
2021/09/22 00:07:29;;;;;;;10.32;9.52;;;;;;;10.99;90.78;100996.28;10378114;28;20053;-72
2021/09/22 00:12:31;;;;;;;9.25;8.52;;;;;;;11.03;89.29;100983.03;10377592;28;20065;-73
2021/09/22 00:17:33;;;;;;;9.30;8.52;;;;;;;11.05;89.14;100983.84;10326822;28;1063346;-72
2021/09/22 00:22:34;;;;;;;8.43;7.82;;;;;;;11.04;88.95;100976.88;10362937;28;20056;-72
2021/09/22 00:27:37;;;;;;;9.75;9.05;;;;;;;11.00;89.32;100977.81;10362744;28;20488;-72
2021/09/22 00:32:40;;;;;;;9.00;8.30;;;;;;;11.09;89.56;100989.94;10380293;28;20057;-72
2021/09/22 00:37:42;;;;;;;8.23;7.65;;;;;;;11.18;87.23;100976.59;10378135;28;20072;-73
2021/09/22 00:42:43;;;;;;;8.30;7.70;;;;;;;11.11;88.88;100981.13;10379328;28;20506;-72
2021/09/22 00:47:45;;;;;;;8.00;7.40;;;;;;;11.30;86.53;100986.03;10379695;28;20096;-72
2021/09/22 00:52:57;;;;;;;8.88;8.18;;;;;;;11.24;87.10;100984.38;10379947;28;20491;-73
2021/09/22 00:57:59;;;;;;;7.70;7.03;;;;;;;11.39;85.21;100975.31;10378654;28;20038;-73
2021/09/22 01:03:00;;;;;;;7.57;6.72;;;;;;;11.28;86.10;100972.88;10362588;28;20046;-73
2021/09/22 01:08:05;;;;;;;8.23;7.63;;;;;;;11.42;85.97;100961.22;10378438;28;20045;-73
2021/09/22 01:13:06;;;;;;;7.93;7.32;;;;;;;11.39;85.23;100958.66;10378130;28;20048;-73
2021/09/22 01:18:19;;;;;;;7.25;6.65;;;;;;;11.31;85.20;100966.72;10379640;28;20404;-72
2021/09/22 01:23:22;;;;;;;7.63;7.00;;;;;;;11.27;86.09;100967.66;10378319;28;20084;-73
2021/09/22 01:28:29;;;;;;;8.40;7.63;;;;;;;11.19;87.76;100957.28;10360817;28;20411;-72
2021/09/22 01:33:33;;;;;;;8.77;8.10;;;;;;;11.10;88.95;100967.97;10360734;28;20538;-72
2021/09/22 01:38:40;;;;;;;9.45;8.52;;;;;;;11.37;86.40;100971.84;10360731;28;20100;-73
2021/09/22 01:43:46;;;;;;;7.70;7.10;;;;;;;11.34;86.89;100975.41;10360631;28;20046;-73
2021/09/22 01:48:52;;;;;;;9.02;8.35;;;;;;;11.25;88.40;100962.44;10361560;28;20045;-72
2021/09/22 01:53:55;;;;;;;8.85;8.05;;;;;;;11.23;88.79;100971.25;10359384;28;20092;-72
2021/09/22 01:58:57;;;;;;;8.32;7.72;;;;;;;11.19;89.58;100961.69;10359914;28;20046;-72
2021/09/22 02:04:00;;;;;;;8.77;7.97;;;;;;;11.36;88.90;100951.69;10375916;28;20482;-72
2021/09/22 02:09:19;;;;;;;8.88;7.95;;;;;;;11.25;89.86;100953.69;10359645;28;20050;-72
2021/09/22 02:14:21;;;;;;;9.13;8.43;;;;;;;11.28;89.68;100957.09;10376816;28;20121;-71
2021/09/22 02:19:28;;;;;;;10.20;8.85;;;;;;;11.30;88.66;100950.06;10375350;28;20133;-72
2021/09/22 02:24:44;;;;;;;8.13;7.43;;;;;;;11.38;87.38;100955.16;10359372;28;20052;-72
2021/09/22 02:29:47;;;;;;;9.45;8.50;;;;;;;11.41;87.52;100949.81;10359027;28;20587;-72
2021/09/22 02:34:48;;;;;;;9.50;8.63;;;;;;;11.41;87.03;100941.91;10374516;28;20049;-73
2021/09/22 02:39:52;;;;;;;10.85;8.48;;;;;;;11.53;85.58;100943.44;10374043;28;20128;-71
2021/09/22 02:44:56;;;;;;;7.72;7.13;;;;;;;11.45;86.20;100942.72;10358019;28;20046;-72
2021/09/22 02:49:57;;;;;;;9.25;8.45;;;;;;;11.26;87.74;100945.75;10376200;28;20042;-72
2021/09/22 02:54:59;;;;;;;8.90;8.20;;;;;;;11.27;87.69;100952.75;10358763;28;20038;-71
2021/09/22 03:00:04;;;;;;;11.07;6.90;;;;;;;11.54;85.63;100937.28;10375544;28;20069;-72
2021/09/22 03:05:07;;;;;;;8.35;7.55;;;;;;;11.51;85.83;100946.13;10358549;28;20495;-72
2021/09/22 03:10:09;;;;;;;9.18;6.70;;;;;;;11.61;85.00;100938.88;10375240;28;20387;-73
2021/09/22 03:15:11;;;;;;;10.10;7.22;;;;;;;11.61;85.75;100950.28;10373578;28;20177;-74
2021/09/22 03:20:13;;;;;;;8.00;7.30;;;;;;;11.48;86.28;100964.59;10377982;28;20076;-73
2021/09/22 03:25:17;;;;;;;11.15;8.13;;;;;;;11.41;87.26;100970.88;10364358;28;20385;-72
2021/09/22 03:30:20;;;;;;;8.10;6.72;;;;;;;11.59;86.22;100965.22;10365049;28;20042;-73
2021/09/22 03:35:29;;;;;;;8.52;7.43;;;;;;;11.62;86.12;100965.16;10365457;28;20496;-73
2021/09/22 03:40:32;;;;;;;8.93;8.13;;;;;;;11.46;88.87;100955.00;10364546;28;20487;-72
2021/09/22 03:45:34;;;;;;;10.90;8.23;;;;;;;11.53;88.55;100967.13;10380395;28;20054;-72
2021/09/22 03:50:36;;;;;;;8.35;7.72;;;;;;;11.43;90.06;100963.84;10380568;28;20053;-74
2021/09/22 03:55:48;;;;;;;11.43;7.43;;;;;;;11.65;88.17;100969.53;10365133;28;20050;-72
2021/09/22 04:00:51;;;;;;;13.55;7.35;;;;;;;11.53;88.89;100975.03;10378502;28;20103;-72
2021/09/22 04:05:52;;;;;;;9.82;7.70;;;;;;;11.48;89.77;100972.50;10380517;28;20042;-73
2021/09/22 04:10:54;;;;;;;15.70;8.25;;;;;;;11.58;89.14;100987.19;10362486;28;20065;-72
2021/09/22 04:15:59;;;;;;;18.58;7.82;;;;;;;11.52;90.54;100982.06;10363282;28;20423;-72
2021/09/22 04:21:02;;;;;;;12.30;8.07;;;;;;;11.50;90.91;100981.22;10377889;28;20053;-73
2021/09/22 04:26:03;;;;;;;26.67;7.57;;;;;;;11.54;90.33;100974.13;10377552;28;20504;-73
2021/09/22 04:31:05;;;;;;;17.75;7.57;;;;;;;11.43;90.60;100978.78;10360115;28;20052;-72
2021/09/22 04:36:27;;;;;;;25.40;7.55;;;;;;;11.34;91.78;100985.94;10380312;28;20467;-73
2021/09/22 04:41:48;;;;;;;12.43;5.85;;;;;;;11.36;92.21;100985.91;10379320;28;20046;-73
2021/09/22 04:47:10;;;;;;;13.20;6.53;;;;;;;11.62;89.47;100983.59;10365036;28;20042;-72
2021/09/22 04:52:29;;;;;;;11.43;6.50;;;;;;;11.52;90.54;100982.06;10378861;28;20057;-73
2021/09/22 04:57:50;;;;;;;16.10;6.90;;;;;;;11.56;90.33;100991.66;10378797;28;20411;-73
2021/09/22 05:03:10;;;;;;;18.23;6.45;;;;;;;11.51;90.60;100988.25;10377896;28;20089;-72
2021/09/22 05:08:30;;;;;;;14.77;6.70;;;;;;;11.59;90.63;100996.81;10377386;28;20046;-72
2021/09/22 05:13:50;;;;;;;16.90;6.53;;;;;;;11.54;90.46;101000.47;10377783;28;20042;-73
2021/09/22 05:19:10;;;;;;;14.85;6.30;;;;;;;11.56;90.45;100999.53;10376646;28;20054;-72
2021/09/22 05:24:30;;;;;;;16.02;5.88;;;;;;;11.59;90.42;101001.22;10362005;28;20188;-72
2021/09/22 05:29:50;;;;;;;20.13;6.90;;;;;;;11.75;89.27;101020.22;10376495;28;20476;-73
2021/09/22 05:35:11;;;;;;;13.77;6.13;;;;;;;11.81;89.02;101034.13;10377124;28;20116;-74
2021/09/22 05:40:32;;;;;;;16.58;5.68;;;;;;;11.62;90.42;101033.66;10376506;28;20046;-73
2021/09/22 05:45:53;;;;;;;22.35;6.38;;;;;;;11.77;89.93;101042.13;10375684;28;20077;-73
2021/09/22 05:51:13;;;;;;;17.92;6.30;;;;;;;11.74;90.10;101042.22;10361148;28;20055;-72
2021/09/22 05:56:33;;;;;;;14.30;6.20;;;;;;;11.96;88.89;101040.91;10376151;28;20041;-73
2021/09/22 06:01:53;;;;;;;17.13;6.13;;;;;;;12.05;88.26;101047.72;10377301;28;20054;-73
2021/09/22 06:07:15;;;;;;;16.17;5.60;;;;;;;12.17;87.95;101044.81;10368323;28;20053;-72
2021/09/22 06:12:35;;;;;;;17.95;5.70;;;;;;;12.42;87.65;101045.13;10376047;28;20054;-73
2021/09/22 06:17:37;;;;;;;22.35;6.25;;;;;;;12.27;87.20;101038.44;10374524;28;20038;-72
2021/09/22 06:22:42;;;;;;;13.68;5.10;;;;;;;12.50;85.92;101045.81;10373259;28;20054;-72
2021/09/22 06:27:44;;;;;;;17.83;5.35;;;;;;;12.42;86.50;101047.75;10374758;28;20096;-72
2021/09/22 06:32:46;;;;;;;13.10;4.65;;;;;;;12.48;85.97;101055.53;10375064;28;20054;-72
2021/09/22 06:38:06;;;;;;;19.02;5.60;;;;;;;12.16;86.26;101058.03;10374323;28;20046;-71
2021/09/22 06:43:14;;;;;;;22.30;4.93;;;;;;;12.10;86.83;101057.25;10373649;28;20058;-71
2021/09/22 06:48:16;;;;;;;16.30;4.90;;;;;;;12.34;84.91;101066.38;10375335;28;20096;-71
2021/09/22 06:53:18;;;;;;;17.42;5.05;;;;;;;12.08;86.01;101068.72;10358554;28;20129;-71
2021/09/22 06:58:19;;;;;;;18.73;5.28;;;;;;;11.99;87.05;101071.56;10382397;28;20042;-71
2021/09/22 07:03:21;;;;;;;13.38;4.22;;;;;;;12.00;86.92;101082.09;10381807;28;20050;-72
2021/09/22 07:08:23;;;;;;;15.43;5.18;;;;;;;12.20;85.96;101092.19;10364604;28;20125;-71
2021/09/22 07:13:25;;;;;;;17.73;4.85;;;;;;;12.04;86.58;101089.03;10382389;28;20061;-73
2021/09/22 07:18:27;;;;;;;16.58;4.45;;;;;;;12.35;84.50;101083.06;10364060;28;20052;-71
2021/09/22 07:23:29;;;;;;;12.70;5.40;;;;;;;12.26;84.94;101100.00;10380818;28;20057;-72
2021/09/22 07:28:30;;;;;;;17.17;4.93;;;;;;;12.31;85.63;101100.75;10364562;28;20046;-71
2021/09/22 07:33:32;;;;;;;21.05;4.93;;;;;;;12.43;85.27;101101.38;10380854;28;20116;-72
2021/09/22 07:38:34;;;;;;;9.95;4.65;;;;;;;12.57;83.88;101101.91;10380404;28;20081;-72
2021/09/22 07:43:36;;;;;;;20.48;4.72;;;;;;;12.80;82.12;101106.69;10363417;28;20093;-71
2021/09/22 07:48:38;;;;;;;16.13;4.47;;;;;;;12.91;82.12;101106.41;10362768;28;20411;-71
2021/09/22 07:53:39;;;;;;;18.55;4.72;;;;;;;12.93;80.75;101105.47;10379692;28;20056;-73
2021/09/22 07:58:41;;;;;;;11.95;4.38;;;;;;;12.81;80.63;101118.97;10380912;28;20408;-72
2021/09/22 08:03:42;;;;;;;15.73;5.75;;;;;;;12.78;82.20;101119.03;10379262;28;20121;-72
2021/09/22 08:08:44;;;;;;;14.80;4.93;;;;;;;12.96;80.69;101118.56;10379364;28;20099;-72
2021/09/22 08:13:46;;;;;;;12.13;4.38;;;;;;;13.18;78.38;101118.06;10379068;28;20057;-71
2021/09/22 08:18:48;;;;;;;18.42;4.93;;;;;;;13.41;78.56;101112.22;10379517;28;20053;-71
2021/09/22 08:23:50;;;;;;;15.55;4.93;;;;;;;13.26;78.08;101109.06;10379107;28;20104;-72
2021/09/22 08:28:57;;;;;;;14.13;4.65;;;;;;;13.40;77.98;101119.25;10362192;28;20546;-72
2021/09/22 08:33:58;;;;;;;16.25;4.97;;;;;;;13.54;78.18;101126.81;10378515;28;20104;-73
2021/09/22 08:39:00;;;;;;;15.77;3.95;;;;;;;13.79;76.80;101112.03;10360897;28;20038;-71
2021/09/22 08:44:05;;;;;;;21.70;5.30;;;;;;;13.64;76.59;101123.03;10371663;28;20050;-73
2021/09/22 08:49:08;;;;;;;13.77;4.72;;;;;;;13.62;76.66;101125.72;10337335;28;20045;-71
2021/09/22 08:54:11;;;;;;;14.25;4.00;;;;;;;13.71;76.09;101119.31;10349441;28;20054;-71
2021/09/22 08:59:14;;;;;;;15.25;4.55;;;;;;;13.89;75.05;101125.88;10358810;28;20073;-71
2021/09/22 09:04:19;;;;;;;12.52;4.07;;;;;;;13.81;73.51;101120.81;10355616;28;20056;-72
2021/09/22 09:09:36;;;;;;;16.45;4.00;;;;;;;13.94;73.97;101139.81;10362960;28;20431;-72
2021/09/22 09:14:37;;;;;;;15.60;4.53;;;;;;;13.87;75.12;101143.56;10334623;28;20113;-72
2021/09/22 09:19:44;;;;;;;8.43;3.10;;;;;;;13.92;73.06;101144.28;10358713;28;20137;-72
2021/09/22 09:24:47;;;;;;;15.48;3.83;;;;;;;14.28;72.91;101141.50;10377817;28;20105;-72
2021/09/22 09:29:52;;;;;;;11.70;3.33;;;;;;;14.61;69.92;101134.38;10376449;28;20046;-72
2021/09/22 09:35:15;;;;;;;14.52;3.63;;;;;;;14.54;68.14;101138.09;10345562;28;20490;-72
2021/09/22 09:40:36;;;;;;;7.68;2.63;;;;;;;14.52;68.35;101139.91;10317994;28;20050;-71
2021/09/22 09:45:41;;;;;;;11.38;3.05;;;;;;;14.14;68.95;101139.25;10335321;28;20038;-72
2021/09/22 09:50:48;;;;;;;17.40;3.53;;;;;;;14.10;69.71;101137.63;10358973;28;20050;-71
2021/09/22 09:55:50;;;;;;;14.68;3.80;;;;;;;14.18;70.25;101137.41;10348811;28;20113;-70
2021/09/22 10:00:54;;;;;;;10.55;3.50;;;;;;;14.19;69.36;101142.63;10375634;28;20105;-70
2021/09/22 10:05:58;;;;;;;14.50;3.83;;;;;;;14.20;70.03;101143.50;10376179;28;20106;-72
2021/09/22 10:11:03;;;;;;;13.15;3.50;;;;;;;14.51;69.37;101138.19;10358053;28;20141;-72
2021/09/22 10:16:06;;;;;;;13.77;3.45;;;;;;;14.48;69.92;101139.16;10376935;28;20041;-72
2021/09/22 10:21:08;;;;;;;10.60;3.83;;;;;;;14.76;68.83;101130.38;10377118;28;20435;-71
2021/09/22 10:26:10;;;;;;;16.23;3.70;;;;;;;14.98;67.22;101125.25;10376090;28;20423;-72
2021/09/22 10:31:27;;;;;;;11.20;2.92;;;;;;;14.99;68.22;101122.53;10374227;28;20050;-73
2021/09/22 10:36:39;;;;;;;8.82;2.60;;;;;;;15.06;66.34;101120.59;10357392;28;20050;-71
2021/09/22 10:41:43;;;;;;;8.25;2.90;;;;;;;15.49;64.87;101105.84;10375342;28;20038;-72
2021/09/22 10:46:45;;;;;;;15.93;3.70;;;;;;;15.83;63.54;101103.78;10358875;28;20387;-72
2021/09/22 10:51:48;;;;;;;10.25;3.55;;;;;;;16.04;62.33;101112.72;10357536;28;20054;-71
2021/09/22 10:57:01;;;;;;;11.27;3.95;;;;;;;16.02;62.07;101103.09;10374872;28;20092;-72
2021/09/22 11:02:06;;;;;;;12.48;3.63;;;;;;;15.57;64.30;101101.16;10356976;28;20054;-72
2021/09/22 11:07:08;;;;;;;12.05;3.28;;;;;;;15.61;64.75;101102.78;10375473;28;20411;-74
2021/09/22 11:12:11;;;;;;;11.63;3.10;;;;;;;15.91;62.43;101087.59;10356979;28;20510;-73
2021/09/22 11:17:21;;;;;;;9.73;2.58;;;;;;;16.18;62.19;101092.78;10369043;28;20045;-72
2021/09/22 11:22:29;;;;;;;12.38;3.10;;;;;;;15.87;61.38;101089.47;10334337;28;20096;-72
2021/09/22 11:27:31;;;;;;;12.40;3.13;;;;;;;15.74;61.67;101080.25;10316916;28;20050;-71
2021/09/22 11:32:44;;;;;;;10.15;3.20;;;;;;;15.80;62.45;101080.00;10316572;28;20054;-74
2021/09/22 11:37:52;;;;;;;9.35;3.53;;;;;;;15.42;62.23;101089.31;10335872;28;20043;-73
2021/09/22 11:43:12;;;;;;;17.92;3.15;;;;;;;15.69;62.00;101092.81;10340875;28;20047;-75
2021/09/22 11:48:23;;;;;;;11.02;3.10;;;;;;;16.26;59.38;101077.44;10341726;28;20046;-73
2021/09/22 11:53:29;;;;;;;9.27;2.80;;;;;;;16.45;58.70;101080.22;10340553;28;20050;-73
2021/09/22 11:58:34;;;;;;;10.25;2.88;;;;;;;16.19;59.89;101087.41;10322969;28;20042;-74
2021/09/22 12:03:38;;;;;;;10.80;3.33;;;;;;;16.65;59.49;101080.31;10339463;28;20042;-74
2021/09/22 12:08:43;;;;;;;12.10;3.97;;;;;;;16.35;58.37;101077.06;10338260;28;20459;-75
2021/09/22 12:13:46;;;;;;;14.82;3.95;;;;;;;16.60;57.72;101083.16;10339414;28;20407;-73
2021/09/22 12:18:54;;;;;;;9.15;3.08;;;;;;;16.36;61.35;101077.00;10322710;28;20395;-74
2021/09/22 12:24:02;;;;;;;11.02;3.40;;;;;;;16.14;59.35;101073.47;10338727;28;20038;-73
2021/09/22 12:29:12;;;;;;;10.43;2.83;;;;;;;15.97;60.26;101068.78;10338558;28;20125;-73
2021/09/22 12:34:23;;;;;;;13.02;3.55;;;;;;;16.24;59.66;101060.69;10338844;28;20096;-73
2021/09/22 12:39:28;;;;;;;13.07;3.38;;;;;;;16.09;58.70;101059.50;10338486;28;20195;-73
2021/09/22 12:44:50;;;;;;;11.02;3.50;;;;;;;16.15;58.27;101068.06;10320687;28;20101;-72
2021/09/22 12:50:05;;;;;;;11.88;3.25;;;;;;;16.36;58.43;101058.44;10337145;28;20057;-73
2021/09/22 12:55:29;;;;;;;14.15;3.28;;;;;;;16.08;59.00;101040.09;10338106;28;20049;-74
2021/09/22 13:00:53;;;;;;;14.65;3.58;;;;;;;16.06;59.82;101033.97;10338010;28;20046;-73
2021/09/22 13:06:19;;;;;;;9.75;3.05;;;;;;;16.01;59.36;101025.31;10320678;28;20069;-72
2021/09/22 13:11:22;;;;;;;8.85;3.05;;;;;;;16.48;57.84;101029.69;10337374;28;20053;-73
2021/09/22 13:16:39;;;;;;;13.98;2.63;;;;;;;16.82;56.43;101037.16;10365950;22;20050;-68
2021/09/22 13:21:43;;;;;;;14.73;3.35;;;;;;;16.97;56.01;101015.28;10375820;28;20046;-69
2021/09/22 13:26:46;;;;;;;11.13;3.83;;;;;;;16.60;57.73;101011.47;10375389;28;20497;-68
2021/09/22 13:31:54;;;;;;;13.02;3.63;;;;;;;16.58;57.83;101002.69;10375099;28;20046;-68
2021/09/22 13:36:58;;;;;;;11.13;3.22;;;;;;;16.33;58.47;100999.31;10374943;28;20045;-68
2021/09/22 13:41:59;;;;;;;14.82;3.78;;;;;;;16.15;59.05;101009.72;10375731;28;20073;-68
2021/09/22 13:47:01;;;;;;;11.40;2.42;;;;;;;16.20;59.15;101008.69;10378996;28;20060;-70
2021/09/22 13:52:03;;;;;;;14.25;3.17;;;;;;;16.32;58.94;100998.44;10375652;28;20074;-68
2021/09/22 13:57:05;;;;;;;9.57;3.60;;;;;;;16.43;58.14;100987.41;10377833;28;20403;-68
2021/09/22 14:02:07;;;;;;;9.85;3.03;;;;;;;16.73;56.52;100984.44;10376867;28;20056;-69
2021/09/22 14:07:10;;;;;;;12.13;3.08;;;;;;;17.01;56.12;100976.16;10375634;28;20030;-68
2021/09/22 14:12:12;;;;;;;7.28;2.67;;;;;;;16.89;55.82;100975.75;10377426;28;20042;-68
2021/09/22 14:17:13;;;;;;;9.82;3.58;;;;;;;17.13;54.98;100970.28;10374933;28;20051;-68
2021/09/22 14:22:15;;;;;;;10.75;3.60;;;;;;;16.99;55.21;100972.69;10374319;28;20050;-68
2021/09/22 14:27:17;;;;;;;9.38;2.85;;;;;;;16.70;55.20;100968.63;10376755;28;20045;-67
2021/09/22 14:32:19;;;;;;;12.43;3.17;;;;;;;16.69;55.95;100975.72;10375669;28;20115;-67
2021/09/22 14:37:22;;;;;;;12.27;2.97;;;;;;;16.84;55.22;100971.56;10378064;28;20044;-68
2021/09/22 14:42:24;;;;;;;8.88;2.92;;;;;;;16.64;56.09;100962.66;10380308;28;20053;-69
2021/09/22 14:47:25;;;;;;;7.43;2.08;;;;;;;16.58;56.92;100962.88;10378849;28;20041;-70
2021/09/22 14:52:27;;;;;;;10.15;3.00;;;;;;;16.46;57.31;100973.13;10378544;28;20073;-69
2021/09/22 14:57:31;;;;;;;9.02;2.75;;;;;;;16.52;57.72;100964.94;10376921;28;20045;-69
2021/09/22 15:02:32;;;;;;;10.90;3.38;;;;;;;16.42;58.52;100964.44;10378539;28;20054;-68
2021/09/22 15:07:40;;;;;;;13.73;3.22;;;;;;;16.36;57.72;100954.94;10380270;28;20070;-68
2021/09/22 15:12:43;;;;;;;11.60;2.50;;;;;;;16.13;58.88;100953.22;10377388;28;20045;-69
2021/09/22 15:17:45;;;;;;;11.23;3.03;;;;;;;15.97;60.57;100962.72;10385156;28;20097;-69
2021/09/22 15:22:48;;;;;;;10.38;3.28;;;;;;;15.87;60.50;100956.91;10387976;28;20088;-68
2021/09/22 15:27:50;;;;;;;10.25;3.55;;;;;;;15.77;61.08;100957.34;10386326;28;20057;-68
2021/09/22 15:32:55;;;;;;;12.20;3.88;;;;;;;15.55;61.88;100947.53;10387136;28;20046;-68
2021/09/22 15:37:58;;;;;;;10.50;3.00;;;;;;;15.29;62.97;100943.19;10387656;28;20459;-69
2021/09/22 15:42:59;;;;;;;10.27;3.25;;;;;;;15.39;63.29;100944.56;10379672;28;20137;-69
2021/09/22 15:48:02;;;;;;;9.10;3.78;;;;;;;15.28;63.79;100938.81;10383892;28;20037;-69
2021/09/22 15:53:06;;;;;;;10.30;2.97;;;;;;;15.19;64.33;100938.31;10386145;28;20053;-69
2021/09/22 15:58:08;;;;;;;12.93;3.30;;;;;;;15.29;64.61;100951.13;10385737;28;20045;-67
2021/09/22 16:03:10;;;;;;;13.68;3.60;;;;;;;15.30;65.83;100946.69;10375779;28;20451;-67
2021/09/22 16:08:13;;;;;;;10.85;3.92;;;;;;;15.71;62.58;100939.88;10364027;28;20042;-67
2021/09/22 16:13:15;;;;;;;12.75;7.28;;;;;;;15.55;63.13;100934.28;10362886;28;20046;-68
2021/09/22 16:18:16;;;;;;;13.35;6.10;;;;;;;15.26;64.66;100923.88;10382227;28;20102;-68
2021/09/22 16:23:18;;;;;;;11.15;3.78;;;;;;;15.34;64.11;100908.59;10344749;28;20054;-68
2021/09/22 16:28:20;;;;;;;11.35;4.90;;;;;;;15.12;65.57;100919.09;10336171;28;20065;-68
2021/09/22 16:33:21;;;;;;;11.73;5.22;;;;;;;15.15;64.63;100924.28;10337958;28;20046;-68
2021/09/22 16:38:23;;;;;;;6.18;2.47;;;;;;;15.15;65.25;100921.66;10354771;28;20042;-68
2021/09/22 16:43:25;;;;;;;11.68;3.85;;;;;;;15.08;65.61;100912.19;10377257;28;20124;-68
2021/09/22 16:48:27;;;;;;;9.70;3.15;;;;;;;14.78;67.31;100916.78;10383039;28;20052;-68
2021/09/22 16:53:29;;;;;;;9.07;2.40;;;;;;;14.27;69.93;100912.34;10361611;28;20049;-68
2021/09/22 16:58:30;;;;;;;8.90;2.83;;;;;;;14.05;71.11;100904.25;10376871;28;20042;-68
2021/09/22 17:03:32;;;;;;;9.32;4.00;;;;;;;13.88;71.72;100904.78;10377521;28;20056;-68
2021/09/22 17:08:34;;;;;;;7.15;3.35;;;;;;;13.69;72.91;100907.13;10377624;28;20395;-68
2021/09/22 17:13:57;;;;;;;8.00;3.67;;;;;;;13.50;74.36;100900.66;10334283;28;20050;-69
2021/09/22 17:19:02;;;;;;;10.93;3.20;;;;;;;13.36;74.73;100890.50;10319821;28;20415;-68
2021/09/22 17:24:06;;;;;;;13.25;4.18;;;;;;;13.45;74.69;100887.59;10340358;28;20053;-67
2021/09/22 17:29:09;;;;;;;12.43;3.92;;;;;;;13.36;75.36;100890.50;10339689;28;20042;-69
2021/09/22 17:34:11;;;;;;;10.90;4.40;;;;;;;13.25;75.38;100893.47;10338731;28;20508;-68
2021/09/22 17:39:13;;;;;;;8.38;3.33;;;;;;;13.28;75.34;100885.47;10340723;28;20427;-67
2021/09/22 17:44:17;;;;;;;10.05;3.05;;;;;;;13.27;74.85;100890.78;10337158;28;20038;-68
2021/09/22 17:49:20;;;;;;;10.00;4.70;;;;;;;13.39;74.86;100885.13;10337496;28;20069;-68
2021/09/22 17:54:21;;;;;;;12.40;4.18;;;;;;;13.21;75.85;100869.81;10321920;28;20496;-69
2021/09/22 17:59:23;;;;;;;11.07;4.32;;;;;;;13.01;76.95;100875.66;10336705;28;20038;-69
2021/09/22 18:04:25;;;;;;;11.02;3.88;;;;;;;13.02;76.81;100872.13;10335610;28;20061;-68
2021/09/22 18:09:26;;;;;;;11.50;5.07;;;;;;;13.09;76.35;100877.16;10316303;28;20050;-68
2021/09/22 18:14:28;;;;;;;14.32;4.22;;;;;;;13.00;76.84;100881.84;10334139;28;20065;-68
2021/09/22 18:19:30;;;;;;;8.35;2.95;;;;;;;12.93;77.13;100893.50;10333337;28;20531;-67
2021/09/22 18:24:32;;;;;;;15.13;4.78;;;;;;;12.86;77.54;100896.28;10334229;28;20050;-69
2021/09/22 18:29:33;;;;;;;11.55;3.97;;;;;;;12.79;77.50;100891.22;10334499;28;20046;-69
2021/09/22 18:34:35;;;;;;;17.20;4.13;;;;;;;12.91;76.83;100888.25;10333345;28;20038;-68
2021/09/22 18:39:37;;;;;;;13.02;3.35;;;;;;;12.78;77.69;100886.84;10333687;28;20046;-68
2021/09/22 18:44:44;;;;;;;11.30;3.70;;;;;;;12.78;77.21;100889.47;10333110;28;20080;-69
2021/09/22 18:49:46;;;;;;;16.17;4.32;;;;;;;12.87;77.15;100891.88;10336188;28;20053;-69
2021/09/22 18:54:48;;;;;;;9.15;4.03;;;;;;;12.85;77.02;100878.72;10341842;28;20381;-69
2021/09/22 18:59:50;;;;;;;16.10;4.28;;;;;;;12.69;77.83;100881.81;10341058;28;20050;-68
2021/09/22 19:04:54;;;;;;;8.02;3.25;;;;;;;12.61;78.12;100885.53;10341374;28;20043;-68
2021/09/22 19:09:56;;;;;;;8.38;3.65;;;;;;;12.43;79.29;100877.22;10340226;28;20065;-68
2021/09/22 19:15:00;;;;;;;15.73;4.25;;;;;;;12.26;80.06;100882.94;10340327;28;20041;-69
2021/09/22 19:20:01;;;;;;;19.95;4.45;;;;;;;12.12;81.61;100883.28;10389503;22;20081;-75
2021/09/22 19:25:05;;;;;;;11.68;4.57;;;;;;;12.05;81.96;100887.00;10339970;28;20138;-73
2021/09/22 19:30:08;;;;;;;10.57;3.65;;;;;;;12.11;81.32;100885.06;10340033;28;20042;-74
2021/09/22 19:35:10;;;;;;;15.05;3.88;;;;;;;11.95;82.39;100878.41;10339764;28;20053;-73
2021/09/22 19:40:12;;;;;;;11.07;5.50;;;;;;;11.91;82.40;100887.31;10340762;28;20042;-74
2021/09/22 19:45:14;;;;;;;14.18;4.93;;;;;;;11.91;83.13;100883.78;10339059;28;20138;-74
2021/09/22 19:50:16;;;;;;;16.75;5.53;;;;;;;11.82;83.36;100885.75;10339949;28;20049;-75
2021/09/22 19:55:18;;;;;;;17.35;5.75;;;;;;;11.72;84.39;100881.56;10340386;28;20058;-75
2021/09/22 20:00:20;;;;;;;18.35;6.65;;;;;;;11.75;84.36;100870.09;10339742;28;20034;-74
2021/09/22 20:05:22;;;;;;;11.02;5.90;;;;;;;11.59;85.27;100875.69;10338562;28;20072;-75
2021/09/22 20:10:26;;;;;;;14.57;5.95;;;;;;;11.43;86.27;100871.69;10339124;28;20046;-73
2021/09/22 20:15:28;;;;;;;19.40;6.50;;;;;;;11.41;86.20;100873.47;10339337;28;20050;-74
2021/09/22 20:20:30;;;;;;;18.30;5.88;;;;;;;11.57;84.73;100866.97;10353960;28;20054;-74
2021/09/22 20:25:36;;;;;;;15.45;5.93;;;;;;;11.50;84.78;100860.09;10337473;28;20133;-73
2021/09/22 20:30:38;;;;;;;18.38;4.50;;;;;;;11.63;83.63;100860.69;10338929;28;20046;-73
2021/09/22 20:35:40;;;;;;;9.07;5.20;;;;;;;11.72;83.08;100846.44;10338493;28;20082;-74
2021/09/22 20:40:42;;;;;;;13.05;5.22;;;;;;;11.98;80.67;100846.72;10338284;28;20042;-73
2021/09/22 20:45:44;;;;;;;15.95;4.40;;;;;;;12.03;80.50;100842.19;10338362;28;20066;-73
2021/09/22 20:50:46;;;;;;;10.93;4.80;;;;;;;12.06;79.98;100838.63;10336634;28;20046;-74
2021/09/22 20:55:47;;;;;;;10.02;4.78;;;;;;;11.95;80.71;100838.03;10336545;28;20409;-74
2021/09/22 21:00:51;;;;;;;14.05;5.35;;;;;;;11.72;82.07;100833.28;10336033;28;20054;-74
2021/09/22 21:05:52;;;;;;;9.38;5.00;;;;;;;11.73;82.42;100841.16;10335995;28;20050;-73
2021/09/22 21:10:54;;;;;;;15.18;5.40;;;;;;;11.68;83.20;100839.53;10338146;28;20042;-74
2021/09/22 21:16:00;;;;;;;9.85;4.75;;;;;;;11.85;82.56;100838.25;10336824;28;20065;-74
2021/09/22 21:21:02;;;;;;;9.32;4.10;;;;;;;11.94;81.53;100831.03;10337334;28;20042;-73
2021/09/22 21:26:04;;;;;;;10.80;6.03;;;;;;;11.80;82.68;100840.09;10336027;28;20050;-74
2021/09/22 21:31:07;;;;;;;12.10;5.30;;;;;;;11.87;82.74;100840.88;10335834;28;20038;-73
2021/09/22 21:36:09;;;;;;;9.23;5.75;;;;;;;11.94;82.65;100834.53;10336014;28;20046;-73
2021/09/22 21:41:11;;;;;;;15.40;6.22;;;;;;;11.91;82.70;100833.72;10336287;28;20050;-73
2021/09/22 21:46:12;;;;;;;12.30;6.53;;;;;;;11.79;84.11;100833.09;10334086;28;20046;-73
2021/09/22 21:51:14;;;;;;;17.17;6.72;;;;;;;11.89;83.43;100835.56;10333730;28;20046;-73
2021/09/22 21:56:19;;;;;;;11.27;6.25;;;;;;;11.75;83.86;100834.09;10333692;28;20047;-73
2021/09/22 22:01:20;;;;;;;12.63;6.35;;;;;;;11.99;83.11;100821.25;10334870;28;20046;-75
2021/09/22 22:06:22;;;;;;;17.38;6.40;;;;;;;11.94;83.33;100824.00;10335153;28;20073;-74
2021/09/22 22:11:24;;;;;;;11.43;5.15;;;;;;;12.08;83.34;100819.22;10335067;28;20035;-74
2021/09/22 22:16:28;;;;;;;10.30;6.43;;;;;;;12.04;83.20;100825.50;10335575;28;20078;-74
2021/09/22 22:21:30;;;;;;;11.07;5.00;;;;;;;12.24;82.43;100814.44;10335002;28;20145;-74
2021/09/22 22:26:32;;;;;;;9.18;5.20;;;;;;;12.33;81.21;100806.28;10334724;28;20046;-74
2021/09/22 22:31:33;;;;;;;11.10;4.30;;;;;;;12.58;79.14;100800.38;10333235;28;20038;-73
2021/09/22 22:36:35;;;;;;;9.82;4.15;;;;;;;12.56;80.26;100795.13;10334835;28;20050;-73
2021/09/22 22:41:37;;;;;;;9.05;4.25;;;;;;;12.68;78.87;100787.78;10335169;28;20074;-74
2021/09/22 22:46:38;;;;;;;8.82;4.35;;;;;;;12.70;78.08;100775.41;10334414;28;20061;-74
2021/09/22 22:51:41;;;;;;;8.00;4.22;;;;;;;12.94;76.33;100758.00;10334112;28;20065;-72
2021/09/22 22:56:42;;;;;;;8.85;4.10;;;;;;;12.89;76.09;100747.59;10333668;28;20050;-73
2021/09/22 23:01:44;;;;;;;6.68;4.40;;;;;;;12.77;76.67;100743.53;10333937;28;20046;-74
2021/09/22 23:06:46;;;;;;;8.77;4.90;;;;;;;12.66;77.22;100740.34;10334420;28;20058;-73
2021/09/22 23:11:48;;;;;;;9.95;4.78;;;;;;;12.48;78.35;100743.50;10334481;28;20062;-73